createdAt,value
2018-03-19T00:02:08.591Z,99.90
2018-03-19T00:04:34.737Z,99.90
2018-03-19T00:07:01.212Z,99.90
2018-03-19T00:09:27.368Z,99.90
2018-03-19T00:11:54.477Z,99.90
2018-03-19T00:14:20.542Z,99.90
2018-03-19T00:16:46.791Z,99.90
2018-03-19T00:19:13.022Z,99.90
2018-03-19T00:21:39.329Z,99.90
2018-03-19T00:24:06.194Z,99.90
2018-03-19T00:26:32.334Z,99.90
2018-03-19T00:28:59.266Z,99.90
2018-03-19T00:31:26.229Z,99.90
2018-03-19T00:33:52.440Z,99.90
2018-03-19T00:36:18.578Z,99.90
2018-03-19T00:38:45.478Z,99.90
2018-03-19T00:41:11.846Z,99.90
2018-03-19T00:43:37.979Z,99.90
2018-03-19T00:46:04.163Z,99.90
2018-03-19T00:48:30.330Z,99.90
2018-03-19T00:50:56.571Z,99.90
2018-03-19T00:53:22.800Z,99.90
2018-03-19T00:55:48.993Z,99.90
2018-03-19T00:58:15.292Z,99.90
2018-03-19T01:00:41.476Z,99.90
2018-03-19T01:03:07.558Z,99.90
2018-03-19T01:05:34.491Z,99.90
2018-03-19T01:08:00.781Z,99.90
2018-03-19T01:10:27.010Z,99.90
2018-03-19T01:12:53.133Z,99.90
2018-03-19T01:15:19.223Z,99.90
2018-03-19T01:17:46.068Z,99.90
2018-03-19T01:20:12.119Z,99.90
2018-03-19T01:22:38.216Z,99.90
2018-03-19T01:25:04.999Z,99.90
2018-03-19T01:27:32.046Z,99.90
2018-03-19T01:29:58.151Z,99.90
2018-03-19T01:32:24.454Z,99.90
2018-03-19T01:34:50.733Z,99.90
2018-03-19T01:37:16.845Z,99.90
2018-03-19T01:39:42.958Z,99.90
2018-03-19T01:42:10.910Z,99.90
2018-03-19T01:44:37.900Z,99.90
2018-03-19T01:47:04.117Z,99.90
2018-03-19T01:49:30.206Z,99.90
2018-03-19T01:51:57.037Z,99.90
2018-03-19T01:54:23.218Z,99.90
2018-03-19T01:56:49.373Z,99.80
2018-03-19T01:59:15.570Z,99.90
2018-03-19T02:01:41.677Z,99.90
2018-03-19T02:04:08.555Z,99.90
2018-03-19T02:06:34.696Z,99.90
2018-03-19T02:09:00.801Z,99.90
2018-03-19T02:11:27.789Z,99.90
2018-03-19T02:13:53.895Z,99.90
2018-03-19T02:16:20.178Z,99.90
2018-03-19T02:18:46.599Z,99.90
2018-03-19T02:21:12.767Z,99.90
2018-03-19T02:23:39.610Z,99.90
2018-03-19T02:26:05.731Z,99.90
2018-03-19T02:28:31.981Z,99.90
2018-03-19T02:30:58.934Z,99.90
2018-03-19T02:33:25.115Z,99.90
2018-03-19T02:35:51.321Z,99.90
2018-03-19T02:38:17.390Z,99.90
2018-03-19T02:40:43.695Z,99.90
2018-03-19T02:43:09.769Z,99.90
2018-03-19T02:45:35.949Z,99.90
2018-03-19T02:48:02.206Z,99.90
2018-03-19T02:50:28.375Z,99.90
2018-03-19T02:52:54.515Z,99.90
2018-03-19T02:55:20.636Z,99.90
2018-03-19T02:57:46.842Z,99.90
2018-03-19T03:00:12.935Z,99.90
2018-03-19T03:02:39.746Z,99.90
2018-03-19T03:05:05.856Z,99.90
2018-03-19T03:07:32.050Z,99.90
2018-03-19T03:09:58.970Z,99.90
2018-03-19T03:12:25.285Z,99.90
2018-03-19T03:14:51.509Z,99.90
2018-03-19T03:17:18.378Z,99.90
2018-03-19T03:19:45.825Z,99.90
2018-03-19T03:22:11.869Z,99.90
2018-03-19T03:24:38.898Z,99.90
2018-03-19T03:27:05.227Z,99.90
2018-03-19T03:29:31.352Z,99.90
2018-03-19T03:31:58.285Z,99.90
2018-03-19T03:34:24.385Z,99.90
2018-03-19T03:36:50.680Z,99.90
2018-03-19T03:39:16.814Z,99.90
2018-03-19T03:41:42.941Z,99.90
2018-03-19T03:44:10.057Z,99.90
2018-03-19T03:46:36.369Z,99.90
2018-03-19T03:49:03.307Z,99.90
2018-03-19T03:51:29.430Z,99.90
2018-03-19T03:53:55.480Z,99.90
2018-03-19T03:56:22.120Z,99.90
2018-03-19T03:58:48.308Z,99.90
2018-03-19T04:01:14.562Z,99.90
2018-03-19T04:03:41.532Z,99.90
2018-03-19T04:06:07.803Z,99.90
2018-03-19T04:08:34.586Z,99.90
2018-03-19T04:11:00.707Z,99.90
2018-03-19T04:13:27.062Z,99.90
2018-03-19T04:15:53.263Z,99.90
2018-03-19T04:18:19.288Z,99.90
2018-03-19T04:20:46.134Z,99.90
2018-03-19T04:23:12.209Z,99.90
2018-03-19T04:25:38.355Z,99.90
2018-03-19T04:28:04.486Z,99.90
2018-03-19T04:30:30.607Z,99.90
2018-03-19T04:32:57.433Z,99.90
2018-03-19T04:35:23.917Z,99.90
2018-03-19T04:37:49.936Z,99.90
2018-03-19T04:40:16.014Z,99.90
2018-03-19T04:42:42.090Z,99.90
2018-03-19T04:45:08.240Z,99.90
2018-03-19T04:47:34.443Z,99.90
2018-03-19T04:50:00.975Z,99.90
2018-03-19T04:52:27.305Z,99.90
2018-03-19T04:54:53.510Z,99.90
2018-03-19T04:57:20.436Z,99.90
2018-03-19T04:59:46.558Z,99.90
2018-03-19T05:02:13.485Z,99.90
2018-03-19T05:04:39.633Z,99.90
2018-03-19T05:07:06.623Z,99.90
2018-03-19T05:09:33.438Z,99.90
2018-03-19T05:11:59.612Z,99.90
2018-03-19T05:14:25.874Z,99.90
2018-03-19T05:16:52.295Z,99.90
2018-03-19T05:19:18.444Z,99.90
2018-03-19T05:21:44.552Z,99.90
2018-03-19T05:24:10.619Z,99.90
2018-03-19T05:26:36.797Z,99.90
2018-03-19T05:29:02.898Z,99.90
2018-03-19T05:31:28.964Z,99.90
2018-03-19T05:33:55.792Z,99.90
2018-03-19T05:36:22.689Z,99.90
2018-03-19T05:38:48.885Z,99.90
2018-03-19T05:41:15.790Z,99.90
2018-03-19T05:43:41.986Z,99.90
2018-03-19T05:46:08.784Z,99.90
2018-03-19T05:48:35.487Z,99.90
2018-03-19T05:51:02.207Z,99.90
2018-03-19T05:53:29.967Z,99.90
2018-03-19T05:55:56.849Z,99.90
2018-03-19T05:58:23.908Z,99.90
2018-03-19T06:00:50.762Z,99.90
2018-03-19T06:03:16.867Z,99.90
2018-03-19T06:05:43.073Z,99.90
2018-03-19T06:08:10.210Z,99.90
2018-03-19T06:10:36.463Z,99.90
2018-03-19T06:13:04.026Z,99.90
2018-03-19T06:15:30.143Z,99.90
2018-03-19T06:17:56.376Z,99.90
2018-03-19T06:20:22.512Z,99.90
2018-03-19T06:22:48.628Z,99.90
2018-03-19T06:25:16.086Z,99.90
2018-03-19T06:27:42.186Z,99.90
2018-03-19T06:30:08.342Z,99.90
2018-03-19T06:32:34.472Z,99.90
2018-03-19T06:35:00.567Z,99.90
2018-03-19T06:37:26.617Z,99.90
2018-03-19T06:39:52.662Z,99.90
2018-03-19T06:42:18.793Z,99.90
2018-03-19T06:44:44.916Z,99.90
2018-03-19T06:47:11.526Z,99.90
2018-03-19T06:49:38.515Z,99.90
2018-03-19T06:52:04.680Z,99.90
2018-03-19T06:54:30.767Z,99.90
2018-03-19T06:56:57.694Z,99.90
2018-03-19T06:59:23.918Z,99.90
2018-03-19T07:01:50.970Z,99.90
2018-03-19T07:04:17.950Z,99.90
2018-03-19T07:06:45.061Z,99.90
2018-03-19T07:09:11.278Z,99.90
2018-03-19T07:11:37.566Z,99.90
2018-03-19T07:14:04.432Z,99.90
2018-03-19T07:16:30.545Z,99.90
2018-03-19T07:18:56.622Z,99.60
2018-03-19T07:21:22.758Z,99.90
2018-03-19T07:23:48.813Z,99.90
2018-03-19T07:26:15.622Z,99.90
2018-03-19T07:28:41.675Z,99.90
2018-03-19T07:31:10.120Z,99.90
2018-03-19T07:33:36.228Z,99.90
2018-03-19T07:36:03.967Z,99.90
2018-03-19T07:38:30.932Z,99.90
2018-03-19T07:40:57.919Z,99.90
2018-03-19T07:43:24.514Z,99.90
2018-03-19T07:45:50.627Z,99.90
2018-03-19T07:48:17.634Z,99.90
2018-03-19T07:50:43.755Z,99.60
2018-03-19T07:53:13.457Z,99.40
2018-03-19T07:55:40.450Z,99.90
2018-03-19T07:58:07.790Z,99.90
2018-03-19T08:00:34.939Z,99.60
2018-03-19T08:03:01.182Z,99.90
2018-03-19T08:05:27.998Z,99.90
2018-03-19T08:07:54.864Z,99.80
2018-03-19T08:10:21.020Z,99.80
2018-03-19T08:12:48.757Z,99.60
2018-03-19T08:15:14.997Z,99.50
2018-03-19T08:17:42.609Z,99.70
2018-03-19T08:20:10.330Z,99.70
2018-03-19T08:22:37.276Z,99.90
2018-03-19T08:25:03.473Z,99.80
2018-03-19T08:27:29.768Z,98.60
2018-03-19T08:29:55.905Z,99.10
2018-03-19T08:32:22.054Z,98.90
2018-03-19T08:34:48.790Z,98.30
2018-03-19T08:37:14.986Z,99.00
2018-03-19T08:39:41.933Z,97.40
2018-03-19T08:42:09.165Z,97.30
2018-03-19T08:44:36.017Z,98.30
2018-03-19T08:49:35.179Z,98.00
2018-03-19T08:52:01.311Z,97.70
2018-03-19T08:54:28.730Z,98.60
2018-03-19T08:56:56.267Z,97.50
2018-03-19T08:59:22.344Z,97.40
2018-03-19T09:01:48.622Z,97.10
2018-03-19T09:04:14.905Z,96.80
2018-03-19T09:06:42.423Z,96.20
2018-03-19T09:09:08.457Z,96.40
2018-03-19T09:11:34.759Z,96.10
2018-03-19T09:14:01.298Z,96.10
2018-03-19T09:16:27.689Z,96.60
2018-03-19T09:18:55.294Z,96.00
2018-03-19T09:21:21.323Z,96.00
2018-03-19T09:23:47.462Z,95.90
2018-03-19T09:26:13.519Z,95.60
2018-03-19T09:28:40.214Z,95.70
2018-03-19T09:31:07.084Z,96.60
2018-03-19T09:33:33.921Z,96.00
2018-03-19T09:36:00.084Z,95.90
2018-03-19T09:38:26.169Z,95.50
2018-03-19T09:40:52.429Z,95.90
2018-03-19T09:43:19.365Z,95.50
2018-03-19T09:45:45.570Z,95.20
2018-03-19T09:48:12.084Z,95.30
2018-03-19T09:50:38.375Z,95.50
2018-03-19T09:53:05.353Z,95.90
2018-03-19T09:55:31.467Z,95.90
2018-03-19T09:57:57.618Z,95.80
2018-03-19T10:00:24.840Z,96.30
2018-03-19T10:02:51.889Z,95.70
2018-03-19T10:05:18.729Z,95.10
2018-03-19T10:07:45.056Z,95.10
2018-03-19T10:10:11.261Z,95.30
2018-03-19T10:12:37.481Z,95.20
2018-03-19T10:15:04.696Z,94.60
2018-03-19T10:17:30.875Z,94.80
2018-03-19T10:19:57.054Z,95.40
2018-03-19T10:22:23.183Z,95.10
2018-03-19T10:24:50.327Z,95.70
2018-03-19T10:27:16.455Z,95.70
2018-03-19T10:29:42.554Z,95.00
2018-03-19T10:32:09.025Z,93.90
2018-03-19T10:34:35.202Z,94.20
2018-03-19T10:37:01.895Z,94.40
2018-03-19T10:39:28.270Z,94.60
2018-03-19T10:41:54.540Z,94.20
2018-03-19T10:44:22.574Z,94.40
2018-03-19T10:46:49.865Z,94.60
2018-03-19T10:49:16.081Z,94.60
2018-03-19T10:51:43.159Z,94.70
2018-03-19T10:54:10.269Z,94.60
2018-03-19T10:56:36.443Z,93.60
2018-03-19T10:59:02.600Z,93.40
2018-03-19T11:01:34.778Z,94.30
2018-03-19T11:04:00.917Z,94.70
2018-03-19T11:06:33.164Z,95.20
2018-03-19T11:09:07.886Z,93.70
2018-03-19T11:11:34.057Z,92.90
2018-03-19T11:14:01.003Z,93.10
2018-03-19T11:16:27.316Z,93.00
2018-03-19T11:18:54.005Z,93.40
2018-03-19T11:21:20.917Z,93.10
2018-03-19T11:23:46.993Z,92.80
2018-03-19T11:26:13.227Z,93.10
2018-03-19T11:28:39.462Z,94.20
2018-03-19T11:31:06.133Z,94.20
2018-03-19T11:33:32.408Z,93.60
2018-03-19T11:35:59.519Z,92.60
2018-03-19T11:38:26.102Z,92.00
2018-03-19T11:40:52.269Z,92.10
2018-03-19T11:43:20.024Z,93.10
2018-03-19T11:45:46.228Z,93.10
2018-03-19T11:48:13.133Z,92.10
2018-03-19T11:50:39.273Z,92.00
2018-03-19T11:53:05.460Z,91.80
2018-03-19T11:55:31.549Z,92.60
2018-03-19T11:57:57.856Z,92.70
2018-03-19T12:00:24.057Z,92.80
2018-03-19T12:02:50.200Z,93.20
2018-03-19T12:05:16.452Z,92.60
2018-03-19T12:07:43.329Z,92.40
2018-03-19T12:10:09.474Z,92.40
2018-03-19T12:12:35.633Z,93.10
2018-03-19T12:15:03.028Z,91.70
2018-03-19T12:17:29.245Z,91.70
2018-03-19T12:19:56.100Z,90.00
2018-03-19T12:22:23.273Z,90.60
2018-03-19T12:24:49.409Z,90.60
2018-03-19T12:27:15.665Z,90.30
2018-03-19T12:29:42.514Z,90.60
2018-03-19T12:32:08.911Z,91.80
2018-03-19T12:34:35.937Z,91.50
2018-03-19T12:37:02.879Z,91.60
2018-03-19T12:39:30.521Z,90.20
2018-03-19T12:41:57.484Z,90.20
2018-03-19T12:44:24.031Z,90.70
2018-03-19T12:46:50.325Z,90.70
2018-03-19T12:49:16.476Z,89.80
2018-03-19T12:51:42.778Z,90.70
2018-03-19T12:54:08.881Z,90.80
2018-03-19T12:56:35.006Z,90.20
2018-03-19T12:59:01.895Z,87.20
2018-03-19T13:01:28.063Z,87.10
2018-03-19T13:03:54.749Z,85.30
2018-03-19T13:06:21.619Z,84.80
2018-03-19T13:08:47.800Z,84.70
2018-03-19T13:11:14.711Z,82.20
2018-03-19T13:13:41.576Z,82.10
2018-03-19T13:16:08.600Z,81.60
2018-03-19T13:18:34.684Z,83.40
2018-03-19T13:21:01.832Z,85.10
2018-03-19T13:23:29.761Z,83.10
2018-03-19T13:25:55.924Z,82.90
2018-03-19T13:28:23.164Z,85.10
2018-03-19T13:30:49.523Z,86.80
2018-03-19T13:33:15.736Z,85.20
2018-03-19T13:35:41.894Z,85.60
2018-03-19T13:38:07.965Z,87.10
2018-03-19T13:40:34.900Z,88.10
2018-03-19T13:43:01.097Z,87.30
2018-03-19T13:45:28.174Z,84.80
2018-03-19T13:47:54.292Z,86.30
2018-03-19T13:50:20.383Z,88.40
2018-03-19T13:52:47.450Z,87.80
2018-03-19T13:55:13.662Z,84.60
2018-03-19T13:57:39.740Z,86.60
2018-03-19T14:00:05.937Z,84.90
2018-03-19T14:02:33.098Z,87.10
2018-03-19T14:04:59.174Z,84.80
2018-03-19T14:07:25.310Z,86.20
2018-03-19T14:09:51.379Z,87.50
2018-03-19T14:12:17.795Z,86.60
2018-03-19T14:14:44.747Z,81.60
2018-03-19T14:17:11.618Z,81.60
2018-03-19T14:19:37.665Z,80.40
2018-03-19T14:22:03.735Z,78.90
2018-03-19T14:24:30.595Z,79.60
2018-03-19T14:26:58.818Z,79.40
2018-03-19T14:29:25.210Z,83.00
2018-03-19T14:31:51.408Z,79.60
2018-03-19T14:34:17.515Z,81.00
2018-03-19T14:36:43.748Z,77.80
2018-03-19T14:39:09.932Z,78.70
2018-03-19T14:41:36.066Z,79.30
2018-03-19T14:44:02.148Z,78.60
2018-03-19T14:46:28.600Z,77.10
2018-03-19T14:48:55.657Z,73.30
2018-03-19T14:51:21.783Z,65.60
2018-03-19T14:53:47.899Z,67.50
2018-03-19T14:56:14.956Z,65.40
2018-03-19T14:58:41.056Z,63.40
2018-03-19T15:01:08.796Z,62.80
2018-03-19T15:03:35.750Z,66.30
2018-03-19T15:06:03.415Z,66.00
2018-03-19T15:08:31.313Z,66.00
2018-03-19T15:10:59.284Z,62.60
2018-03-19T15:13:25.365Z,62.40
2018-03-19T15:15:52.297Z,61.00
2018-03-19T15:18:18.397Z,59.50
2018-03-19T15:20:45.015Z,60.00
2018-03-19T15:23:15.902Z,58.70
2018-03-19T15:25:42.924Z,59.00
2018-03-19T15:28:09.096Z,59.00
2018-03-19T15:30:35.275Z,59.90
2018-03-19T15:33:01.413Z,60.70
2018-03-19T15:35:28.718Z,59.00
2018-03-19T15:37:54.789Z,59.40
2018-03-19T15:40:20.969Z,59.00
2018-03-19T15:42:47.206Z,58.10
2018-03-19T15:45:13.340Z,56.80
2018-03-19T15:47:40.521Z,56.80
2018-03-19T15:50:07.461Z,58.00
2018-03-19T15:52:34.628Z,58.60
2018-03-19T15:55:00.863Z,62.00
2018-03-19T15:57:28.790Z,60.60
2018-03-19T15:59:55.740Z,66.00
2018-03-19T16:02:22.887Z,66.00
2018-03-19T16:04:49.871Z,68.90
2018-03-19T16:07:16.011Z,68.90
2018-03-19T16:09:42.639Z,70.80
2018-03-19T16:12:08.947Z,70.80
2018-03-19T16:14:35.872Z,71.60
2018-03-19T16:17:02.834Z,73.90
2018-03-19T16:19:28.954Z,73.80
2018-03-19T16:21:57.246Z,76.10
2018-03-19T16:24:24.139Z,75.90
2018-03-19T16:26:50.301Z,75.00
2018-03-19T16:29:17.990Z,75.20
2018-03-19T16:31:44.118Z,73.20
2018-03-19T16:34:11.174Z,72.00
2018-03-19T16:36:39.378Z,68.90
2018-03-19T16:39:05.452Z,68.90
2018-03-19T16:41:32.143Z,69.80
2018-03-19T16:44:00.732Z,72.20
2018-03-19T16:46:26.795Z,73.00
2018-03-19T16:48:53.144Z,73.20
2018-03-19T16:51:19.293Z,73.60
2018-03-19T16:53:45.433Z,73.80
2018-03-19T16:56:12.423Z,75.30
2018-03-19T16:58:38.609Z,75.20
2018-03-19T17:01:05.490Z,76.60
2018-03-19T17:03:31.611Z,73.60
2018-03-19T17:05:57.805Z,74.40
2018-03-19T17:08:23.869Z,77.30
2018-03-19T17:10:49.958Z,72.50
2018-03-19T17:13:16.121Z,75.50
2018-03-19T17:15:42.517Z,75.90
2018-03-19T17:18:08.738Z,80.10
2018-03-19T17:20:35.608Z,81.80
2018-03-19T17:23:01.650Z,84.60
2018-03-19T17:25:27.862Z,86.60
2018-03-19T17:27:54.012Z,88.60
2018-03-19T17:30:22.051Z,90.80
2018-03-19T17:32:48.279Z,90.80
2018-03-19T17:35:15.618Z,91.60
2018-03-19T17:40:14.284Z,91.70
2018-03-19T17:42:40.508Z,91.90
2018-03-19T17:45:06.725Z,92.50
2018-03-19T17:47:33.508Z,93.10
2018-03-19T17:50:01.383Z,93.10
2018-03-19T17:52:29.261Z,93.70
2018-03-19T17:54:55.489Z,93.70
2018-03-19T17:57:21.704Z,93.90
2018-03-19T17:59:47.863Z,94.10
2018-03-19T18:02:15.413Z,94.70
2018-03-19T18:04:41.631Z,95.10
2018-03-19T18:07:08.329Z,95.30
2018-03-19T18:09:35.369Z,95.50
2018-03-19T18:12:01.547Z,95.90
2018-03-19T18:14:28.359Z,95.70
2018-03-19T18:16:55.515Z,95.70
2018-03-19T18:19:21.703Z,95.90
2018-03-19T18:21:48.078Z,95.90
2018-03-19T18:24:14.873Z,96.20
2018-03-19T18:29:14.787Z,97.20
2018-03-19T18:31:41.206Z,97.60
2018-03-19T18:34:07.410Z,97.90
2018-03-19T18:36:33.614Z,98.10
2018-03-19T18:39:00.986Z,98.90
2018-03-19T18:41:27.320Z,98.90
2018-03-19T18:43:53.556Z,99.10
2018-03-19T18:46:19.824Z,98.90
2018-03-19T18:48:47.036Z,98.90
2018-03-19T18:51:13.252Z,99.60
2018-03-19T18:53:41.330Z,98.80
2018-03-19T18:56:07.574Z,99.20
2018-03-19T18:58:33.959Z,99.20
2018-03-19T19:01:00.837Z,99.20
2018-03-19T19:03:27.967Z,99.00
2018-03-19T19:05:54.077Z,99.20
2018-03-19T19:08:20.404Z,99.20
2018-03-19T19:10:46.719Z,99.10
2018-03-19T19:13:14.612Z,99.10
2018-03-19T19:15:40.737Z,99.10
2018-03-19T19:18:07.160Z,99.30
2018-03-19T19:20:33.409Z,99.40
2018-03-19T19:23:00.780Z,99.40
2018-03-19T19:25:28.011Z,99.40
2018-03-19T19:27:55.007Z,99.60
2018-03-19T19:30:22.590Z,99.60
2018-03-19T19:32:49.666Z,99.70
2018-03-19T19:35:15.915Z,99.70
2018-03-19T19:37:43.244Z,99.90
2018-03-19T19:40:10.472Z,99.80
2018-03-19T19:42:37.283Z,99.70
2018-03-19T19:45:03.832Z,99.80
2018-03-19T19:47:31.947Z,99.90
2018-03-19T19:49:58.237Z,99.90
2018-03-19T19:52:24.573Z,99.90
2018-03-19T19:54:51.706Z,99.90
2018-03-19T19:57:19.390Z,99.90
2018-03-19T19:59:45.711Z,99.90
2018-03-19T20:02:12.809Z,99.90
2018-03-19T20:04:39.001Z,99.90
2018-03-19T20:07:06.384Z,99.90
2018-03-19T20:09:34.325Z,99.90
2018-03-19T20:12:01.570Z,99.90
2018-03-19T20:14:28.528Z,99.90
2018-03-19T20:16:55.678Z,99.90
2018-03-19T20:19:22.647Z,99.90
2018-03-19T20:21:49.620Z,99.90
2018-03-19T20:24:15.728Z,99.90
2018-03-19T20:26:42.188Z,99.90
2018-03-19T20:29:08.696Z,99.90
2018-03-19T20:31:34.970Z,99.90
2018-03-19T20:34:01.342Z,99.90
2018-03-19T20:36:27.651Z,99.90
2018-03-19T20:38:53.906Z,99.90
2018-03-19T20:41:20.104Z,99.90
2018-03-19T20:43:46.323Z,99.90
2018-03-19T20:46:12.534Z,99.90
2018-03-19T20:48:38.660Z,99.90
2018-03-19T20:51:04.848Z,99.90
2018-03-19T20:53:31.014Z,99.90
2018-03-19T20:55:57.302Z,99.90
2018-03-19T20:58:23.652Z,99.90
2018-03-19T21:00:49.888Z,99.90
2018-03-19T21:03:16.021Z,99.90
2018-03-19T21:05:42.151Z,99.90
2018-03-19T21:08:08.920Z,99.90
2018-03-19T21:10:35.997Z,99.90
2018-03-19T21:13:02.088Z,99.90
2018-03-19T21:15:29.674Z,99.90
2018-03-19T21:17:55.870Z,99.90
2018-03-19T21:20:23.311Z,99.90
2018-03-19T21:22:49.510Z,99.90
2018-03-19T21:25:15.638Z,99.90
2018-03-19T21:27:41.684Z,99.90
2018-03-19T21:30:08.942Z,99.90
2018-03-19T21:32:35.245Z,99.90
2018-03-19T21:35:03.756Z,99.90
2018-03-19T21:37:31.270Z,99.90
2018-03-19T21:39:57.568Z,99.90
2018-03-19T21:42:24.528Z,99.90
2018-03-19T21:44:51.427Z,99.90
2018-03-19T21:47:17.566Z,99.90
2018-03-19T21:49:43.933Z,99.90
2018-03-19T21:52:12.833Z,99.90
2018-03-19T21:54:40.905Z,99.90
2018-03-19T21:57:07.618Z,99.90
2018-03-19T21:59:36.017Z,99.90
2018-03-19T22:02:02.496Z,99.90
2018-03-19T22:04:34.940Z,99.90
2018-03-19T22:07:01.408Z,99.90
2018-03-19T22:09:28.669Z,99.90
2018-03-19T22:11:58.042Z,99.90
2018-03-19T22:14:26.457Z,99.90
2018-03-19T22:16:53.904Z,99.90
2018-03-19T22:19:29.453Z,99.90
2018-03-19T22:21:56.955Z,99.90
2018-03-19T22:24:26.492Z,99.90
2018-03-19T22:26:52.925Z,99.90
2018-03-19T22:29:19.724Z,99.90
2018-03-19T22:31:49.514Z,99.90
2018-03-19T22:34:17.966Z,99.90
2018-03-19T22:36:44.049Z,99.90
2018-03-19T22:39:10.194Z,99.90
2018-03-19T22:41:37.169Z,99.90
2018-03-19T22:44:04.162Z,99.90
2018-03-19T22:46:30.422Z,99.90
2018-03-19T22:48:57.108Z,99.90
2018-03-19T22:51:23.189Z,99.90
2018-03-19T22:53:49.282Z,99.90
2018-03-19T22:56:16.498Z,99.90
2018-03-19T22:58:43.319Z,99.90
2018-03-19T23:01:10.268Z,99.90
2018-03-19T23:03:37.278Z,99.90
2018-03-19T23:06:03.388Z,99.90
2018-03-19T23:08:29.569Z,99.70
2018-03-19T23:10:57.253Z,99.50
2018-03-19T23:13:23.417Z,99.40
2018-03-19T23:15:49.561Z,99.50
2018-03-19T23:18:16.781Z,99.60
2018-03-19T23:20:43.490Z,98.80
2018-03-19T23:23:09.629Z,98.60
2018-03-19T23:25:35.716Z,98.60
2018-03-19T23:28:02.737Z,98.70
2018-03-19T23:30:28.925Z,99.00
2018-03-19T23:32:55.132Z,99.10
2018-03-19T23:35:21.457Z,99.20
2018-03-19T23:37:49.501Z,98.30
2018-03-19T23:40:15.606Z,98.30
2018-03-19T23:42:41.817Z,98.70
2018-03-19T23:45:07.945Z,98.80
2018-03-19T23:47:34.068Z,99.00
2018-03-19T23:50:00.198Z,99.30
2018-03-19T23:52:26.363Z,98.60
2018-03-19T23:54:52.449Z,98.10
2018-03-19T23:57:19.271Z,98.70
2018-03-19T23:59:46.781Z,98.80
